createdAt,value
2018-09-03T00:01:06.871Z,102413.88
2018-09-03T00:03:35.153Z,102414.81
2018-09-03T00:06:03.412Z,102416.86
2018-09-03T00:08:31.698Z,102412.10
2018-09-03T00:10:59.955Z,102406.45
2018-09-03T00:13:28.375Z,102409.36
2018-09-03T00:15:56.637Z,102403.02
2018-09-03T00:18:24.933Z,102408.41
2018-09-03T00:20:53.200Z,102405.81
2018-09-03T00:23:21.501Z,102395.98
2018-09-03T00:25:49.773Z,102388.44
2018-09-03T00:28:18.044Z,102397.03
2018-09-03T00:30:46.305Z,102386.53
2018-09-03T00:33:19.872Z,102390.45
2018-09-03T00:35:53.256Z,102391.63
2018-09-03T00:38:26.800Z,102391.30
2018-09-03T00:41:00.349Z,102390.47
2018-09-03T00:43:33.974Z,102380.67
2018-09-03T00:46:07.413Z,102377.83
2018-09-03T00:48:35.788Z,102379.86
2018-09-03T00:51:04.146Z,102374.40
2018-09-03T00:53:32.416Z,102378.51
2018-09-03T00:56:00.681Z,102367.69
2018-09-03T00:58:28.955Z,102363.14
2018-09-03T01:00:57.209Z,102365.41
2018-09-03T01:03:25.517Z,102365.29
2018-09-03T01:05:53.787Z,102368.89
2018-09-03T01:08:22.077Z,102363.37
2018-09-03T01:10:50.371Z,102361.59
2018-09-03T01:13:18.689Z,102359.95
2018-09-03T01:15:46.949Z,102362.19
2018-09-03T01:18:15.245Z,102369.99
2018-09-03T01:20:43.521Z,102362.92
2018-09-03T01:23:11.852Z,102359.92
2018-09-03T01:25:40.121Z,102362.38
2018-09-03T01:28:08.379Z,102364.84
2018-09-03T01:30:36.651Z,102357.61
2018-09-03T01:33:05.401Z,102356.88
2018-09-03T01:35:33.676Z,102348.00
2018-09-03T01:38:01.929Z,102346.03
2018-09-03T01:40:30.204Z,102339.55
2018-09-03T01:42:58.553Z,102342.52
2018-09-03T01:45:26.844Z,102333.33
2018-09-03T01:47:55.249Z,102333.16
2018-09-03T01:50:23.601Z,102327.20
2018-09-03T01:52:51.841Z,102326.52
2018-09-03T01:55:20.089Z,102323.74
2018-09-03T01:57:48.413Z,102329.81
2018-09-03T02:00:16.658Z,102323.17
2018-09-03T02:02:44.968Z,102326.47
2018-09-03T02:05:13.217Z,102322.08
2018-09-03T02:07:41.489Z,102319.34
2018-09-03T02:10:09.733Z,102320.10
2018-09-03T02:12:38.000Z,102330.16
2018-09-03T02:15:06.568Z,102317.30
2018-09-03T02:17:34.861Z,102312.37
2018-09-03T02:20:03.133Z,102309.14
2018-09-03T02:22:31.402Z,102314.94
2018-09-03T02:24:59.646Z,102298.52
2018-09-03T02:27:27.943Z,102299.80
2018-09-03T02:29:56.825Z,102304.09
2018-09-03T02:32:25.061Z,102302.01
2018-09-03T02:34:53.338Z,102298.03
2018-09-03T02:37:21.584Z,102294.95
2018-09-03T02:39:49.872Z,102299.77
2018-09-03T02:42:18.135Z,102297.45
2018-09-03T02:44:46.475Z,102299.12
2018-09-03T02:47:14.725Z,102293.52
2018-09-03T02:49:43.046Z,102288.02
2018-09-03T02:52:11.289Z,102294.77
2018-09-03T02:54:39.609Z,102290.02
2018-09-03T02:57:07.897Z,102284.52
2018-09-03T02:59:36.201Z,102279.41
2018-09-03T03:02:04.881Z,102282.32
2018-09-03T03:04:33.158Z,102282.44
2018-09-03T03:07:01.416Z,102285.96
2018-09-03T03:09:29.685Z,102277.52
2018-09-03T03:11:57.961Z,102276.88
2018-09-03T03:14:26.259Z,102277.67
2018-09-03T03:16:54.513Z,102279.33
2018-09-03T03:19:22.794Z,102277.13
2018-09-03T03:21:51.056Z,102268.05
2018-09-03T03:24:20.465Z,102278.25
2018-09-03T03:26:48.717Z,102265.45
2018-09-03T03:29:16.974Z,102266.09
2018-09-03T03:31:45.276Z,102272.31
2018-09-03T03:34:13.521Z,102268.41
2018-09-03T03:36:41.813Z,102264.12
2018-09-03T03:39:10.233Z,102255.70
2018-09-03T03:41:38.598Z,102251.30
2018-09-03T03:44:07.345Z,102255.40
2018-09-03T03:46:35.662Z,102245.19
2018-09-03T03:49:03.925Z,102244.66
2018-09-03T03:51:32.219Z,102238.89
2018-09-03T03:54:00.461Z,102241.80
2018-09-03T03:56:28.749Z,102249.92
2018-09-03T03:58:57.045Z,102254.93
2018-09-03T04:01:25.370Z,102247.84
2018-09-03T04:03:54.705Z,102252.95
2018-09-03T04:06:22.989Z,102259.41
2018-09-03T04:08:51.283Z,102257.69
2018-09-03T04:11:19.542Z,102255.38
2018-09-03T04:13:47.817Z,102253.70
2018-09-03T04:16:16.078Z,102246.48
2018-09-03T04:18:44.370Z,102244.41
2018-09-03T04:21:12.630Z,102240.67
2018-09-03T04:23:40.924Z,102240.29
2018-09-03T04:26:09.213Z,102240.05
2018-09-03T04:28:37.520Z,102239.90
2018-09-03T04:31:05.778Z,102242.09
2018-09-03T04:33:34.064Z,102236.11
2018-09-03T04:36:03.197Z,102232.55
2018-09-03T04:38:31.702Z,102235.25
2018-09-03T04:40:59.939Z,102239.05
2018-09-03T04:43:28.238Z,102233.26
2018-09-03T04:45:56.507Z,102230.95
2018-09-03T04:48:24.839Z,102225.47
2018-09-03T04:50:53.119Z,102229.31
2018-09-03T04:53:22.433Z,102232.19
2018-09-03T04:55:50.713Z,102232.55
2018-09-03T04:58:20.429Z,102230.86
2018-09-03T05:00:48.681Z,102229.87
2018-09-03T05:03:17.065Z,102227.95
2018-09-03T05:05:45.442Z,102232.63
2018-09-03T05:08:13.693Z,102232.80
2018-09-03T05:10:41.949Z,102231.69
2018-09-03T05:13:10.228Z,102218.05
2018-09-03T05:15:38.703Z,102221.50
2018-09-03T05:18:07.049Z,102225.64
2018-09-03T05:20:35.338Z,102221.01
2018-09-03T05:23:03.657Z,102228.10
2018-09-03T05:25:31.930Z,102228.59
2018-09-03T05:28:00.239Z,102228.50
2018-09-03T05:30:28.525Z,102229.92
2018-09-03T05:32:57.041Z,102231.41
2018-09-03T05:35:25.325Z,102221.84
2018-09-03T05:37:54.025Z,102224.68
2018-09-03T05:40:22.274Z,102218.13
2018-09-03T05:42:50.541Z,102222.55
2018-09-03T05:45:18.837Z,102218.29
2018-09-03T05:47:47.097Z,102222.12
2018-09-03T05:50:15.567Z,102216.52
2018-09-03T05:52:43.773Z,102212.57
2018-09-03T05:55:12.345Z,102218.12
2018-09-03T05:57:40.605Z,102226.36
2018-09-03T06:00:09.225Z,102214.77
2018-09-03T06:02:37.479Z,102219.95
2018-09-03T06:05:06.207Z,102222.20
2018-09-03T06:07:34.465Z,102221.86
2018-09-03T06:10:02.762Z,102219.05
2018-09-03T06:12:31.033Z,102223.20
2018-09-03T06:14:59.357Z,102224.44
2018-09-03T06:18:56.789Z,102226.61
2018-09-03T06:21:25.091Z,102224.13
2018-09-03T06:23:53.541Z,102216.74
2018-09-03T06:26:21.844Z,102218.19
2018-09-03T06:28:50.233Z,102224.43
2018-09-03T06:31:19.596Z,102228.53
2018-09-03T06:33:47.849Z,102225.55
2018-09-03T06:36:16.124Z,102224.49
2018-09-03T06:38:44.566Z,102228.95
2018-09-03T06:41:12.933Z,102226.16
2018-09-03T06:43:41.201Z,102226.01
2018-09-03T06:46:09.519Z,102221.80
2018-09-03T06:48:37.762Z,102225.16
2018-09-03T06:51:06.185Z,102216.96
2018-09-03T06:53:34.519Z,102215.18
2018-09-03T06:56:02.774Z,102223.57
2018-09-03T06:58:31.097Z,102224.91
2018-09-03T07:00:59.503Z,102221.41
2018-09-03T07:03:27.805Z,102223.67
2018-09-03T07:05:56.246Z,102218.29
2018-09-03T07:08:24.657Z,102221.95
2018-09-03T07:10:52.922Z,102218.50
2018-09-03T07:13:22.416Z,102223.41
2018-09-03T07:15:51.449Z,102230.10
2018-09-03T07:18:19.764Z,102229.03
2018-09-03T07:20:48.053Z,102225.98
2018-09-03T07:23:16.320Z,102220.76
2018-09-03T07:25:44.562Z,102216.39
2018-09-03T07:28:12.912Z,102214.13
2018-09-03T07:30:41.161Z,102218.30
2018-09-03T07:33:09.429Z,102216.39
2018-09-03T07:35:37.748Z,102216.60
2018-09-03T07:38:06.153Z,102226.13
2018-09-03T07:40:34.398Z,102224.45
2018-09-03T07:43:02.676Z,102220.73
2018-09-03T07:45:30.986Z,102215.25
2018-09-03T07:48:00.322Z,102212.81
2018-09-03T07:50:28.614Z,102226.42
2018-09-03T07:52:56.854Z,102222.63
2018-09-03T07:55:25.121Z,102221.67
2018-09-03T07:57:53.362Z,102219.84
2018-09-03T08:00:21.736Z,102220.42
2018-09-03T08:02:49.995Z,102210.86
2018-09-03T08:05:18.257Z,102211.33
2018-09-03T08:07:46.493Z,102207.11
2018-09-03T08:10:14.773Z,102198.54
2018-09-03T08:12:43.097Z,102199.48
2018-09-03T08:15:11.373Z,102203.45
2018-09-03T08:17:39.608Z,102197.31
2018-09-03T08:20:07.980Z,102190.49
2018-09-03T08:22:36.196Z,102194.38
2018-09-03T08:25:04.530Z,102194.75
2018-09-03T08:27:32.769Z,102187.09
2018-09-03T08:30:01.010Z,102194.05
2018-09-03T08:32:29.281Z,102190.13
2018-09-03T08:34:57.525Z,102192.79
2018-09-03T08:37:25.810Z,102193.98
2018-09-03T08:39:54.317Z,102190.90
2018-09-03T08:42:22.615Z,102187.55
2018-09-03T08:44:50.989Z,102186.83
2018-09-03T08:47:19.213Z,102183.33
2018-09-03T08:49:47.457Z,102185.83
2018-09-03T08:52:15.741Z,102181.23
2018-09-03T08:54:44.009Z,102185.38
2018-09-03T08:57:12.374Z,102184.22
2018-09-03T08:59:40.654Z,102186.99
2018-09-03T09:02:09.121Z,102178.62
2018-09-03T09:04:37.385Z,102181.98
2018-09-03T09:07:05.701Z,102181.45
2018-09-03T09:09:34.003Z,102183.88
2018-09-03T09:12:02.282Z,102181.84
2018-09-03T09:14:30.553Z,102183.51
2018-09-03T09:16:58.869Z,102183.03
2018-09-03T09:19:27.137Z,102173.56
2018-09-03T09:21:55.415Z,102165.78
2018-09-03T09:24:23.721Z,102160.71
2018-09-03T09:26:51.946Z,102163.51
2018-09-03T09:29:20.210Z,102160.14
2018-09-03T09:31:48.581Z,102169.42
2018-09-03T09:34:16.841Z,102167.13
2018-09-03T09:36:45.108Z,102161.95
2018-09-03T09:39:13.390Z,102157.45
2018-09-03T09:41:41.644Z,102164.20
2018-09-03T09:44:09.949Z,102162.11
2018-09-03T09:46:38.213Z,102148.87
2018-09-03T09:49:06.533Z,102152.16
2018-09-03T09:51:34.773Z,102154.42
2018-09-03T09:54:03.107Z,102152.22
2018-09-03T09:56:31.395Z,102143.91
2018-09-03T09:58:59.737Z,102150.12
2018-09-03T10:01:33.157Z,102142.73
2018-09-03T10:04:01.758Z,102142.37
2018-09-03T10:06:30.028Z,102134.43
2018-09-03T10:08:58.713Z,102132.61
2018-09-03T10:11:27.483Z,102128.47
2018-09-03T10:13:55.801Z,102129.54
2018-09-03T10:16:24.132Z,102124.95
2018-09-03T10:18:52.521Z,102119.31
2018-09-03T10:21:20.793Z,102122.63
2018-09-03T10:23:49.133Z,102125.98
2018-09-03T10:26:17.460Z,102119.79
2018-09-03T10:28:45.846Z,102115.78
2018-09-03T10:31:14.131Z,102113.19
2018-09-03T10:33:42.383Z,102113.02
2018-09-03T10:36:10.733Z,102119.44
2018-09-03T10:38:39.002Z,102117.91
2018-09-03T10:41:07.689Z,102123.58
2018-09-03T10:43:36.022Z,102120.63
2018-09-03T10:46:04.317Z,102119.83
2018-09-03T10:48:32.600Z,102122.70
2018-09-03T10:51:00.886Z,102116.19
2018-09-03T10:53:29.150Z,102117.27
2018-09-03T10:55:57.433Z,102111.47
2018-09-03T10:58:26.738Z,102118.84
2018-09-03T11:00:55.001Z,102112.03
2018-09-03T11:03:23.277Z,102104.48
2018-09-03T11:05:51.529Z,102097.55
2018-09-03T11:08:19.809Z,102094.13
2018-09-03T11:10:48.124Z,102105.38
2018-09-03T11:13:16.399Z,102099.88
2018-09-03T11:15:44.660Z,102096.00
2018-09-03T11:18:12.945Z,102096.81
2018-09-03T11:20:41.201Z,102092.97
2018-09-03T11:23:09.469Z,102095.80
2018-09-03T11:25:37.768Z,102098.08
2018-09-03T11:28:06.085Z,102098.39
2018-09-03T11:30:34.370Z,102093.80
2018-09-03T11:33:03.589Z,102096.80
2018-09-03T11:35:31.862Z,102104.90
2018-09-03T11:38:00.161Z,102094.76
2018-09-03T11:40:28.458Z,102103.55
2018-09-03T11:42:56.780Z,102095.77
2018-09-03T11:45:25.161Z,102100.64
2018-09-03T11:47:53.469Z,102098.29
2018-09-03T11:50:21.906Z,102095.88
2018-09-03T11:52:50.151Z,102080.67
2018-09-03T11:55:19.489Z,102081.23
2018-09-03T11:57:47.822Z,102087.30
2018-09-03T12:00:23.382Z,102080.59
2018-09-03T12:02:51.646Z,102072.75
2018-09-03T12:05:19.964Z,102079.57
2018-09-03T12:07:48.250Z,102083.28
2018-09-03T12:10:16.597Z,102069.88
2018-09-03T12:12:44.849Z,102077.58
2018-09-03T12:16:20.386Z,102078.86
2018-09-03T12:18:48.656Z,102066.12
2018-09-03T12:21:17.213Z,102064.05
2018-09-03T12:23:45.579Z,102068.73
2018-09-03T12:26:13.884Z,102064.20
2018-09-03T12:28:42.138Z,102065.55
2018-09-03T12:31:10.533Z,102070.73
2018-09-03T12:33:38.745Z,102070.75
2018-09-03T12:36:07.200Z,102066.34
2018-09-03T12:38:35.650Z,102067.95
2018-09-03T12:41:04.491Z,102064.50
2018-09-03T12:43:32.763Z,102065.92
2018-09-03T12:46:04.548Z,102063.61
2018-09-03T12:48:33.405Z,102056.20
2018-09-03T12:51:02.599Z,102048.33
2018-09-03T12:53:31.470Z,102058.28
2018-09-03T12:55:59.969Z,102053.87
2018-09-03T12:58:28.282Z,102048.21
2018-09-03T13:00:56.620Z,102043.33
2018-09-03T13:03:24.903Z,102042.57
2018-09-03T13:05:53.217Z,102038.86
2018-09-03T13:08:21.468Z,102043.20
2018-09-03T13:10:49.785Z,102035.75
2018-09-03T13:13:18.085Z,102035.86
2018-09-03T13:15:46.337Z,102034.23
2018-09-03T13:18:14.609Z,102033.00
2018-09-03T13:20:42.963Z,102042.44
2018-09-03T13:23:11.277Z,102032.48
2018-09-03T13:25:40.565Z,102030.75
2018-09-03T13:28:08.833Z,102036.39
2018-09-03T13:30:37.102Z,102030.52
2018-09-03T13:33:05.373Z,102025.85
2018-09-03T13:35:33.630Z,102024.06
2018-09-03T13:38:02.100Z,102012.65
2018-09-03T13:40:30.344Z,102014.53
2018-09-03T13:42:58.613Z,102010.88
2018-09-03T13:45:26.885Z,102007.71
2018-09-03T13:47:55.343Z,102004.67
2018-09-03T13:50:23.645Z,102010.05
2018-09-03T13:52:51.925Z,102000.51
2018-09-03T13:55:20.229Z,101996.48
2018-09-03T13:57:48.547Z,101998.47
2018-09-03T14:00:16.863Z,102001.08
2018-09-03T14:07:35.141Z,102001.23
2018-09-03T14:10:03.480Z,101998.16
2018-09-03T14:12:31.777Z,101994.03
2018-09-03T14:15:00.162Z,101991.59
2018-09-03T14:17:29.113Z,101998.08
2018-09-03T14:19:58.955Z,101991.86
2018-09-03T14:22:27.262Z,101986.66
2018-09-03T14:24:55.591Z,101994.28
2018-09-03T14:27:24.125Z,101985.99
2018-09-03T14:29:52.641Z,101993.23
2018-09-03T14:32:21.179Z,101992.24
2018-09-03T14:34:49.549Z,101987.61
2018-09-03T14:37:17.817Z,101998.92
2018-09-03T14:39:46.126Z,102003.27
2018-09-03T14:42:14.582Z,101990.23
2018-09-03T14:44:42.907Z,101995.94
2018-09-03T14:47:11.178Z,101987.07
2018-09-03T14:49:39.543Z,101991.52
2018-09-03T14:52:07.812Z,101993.48
2018-09-03T14:54:36.117Z,101987.55
2018-09-03T14:57:04.549Z,101993.42
2018-09-03T14:59:32.885Z,101992.69
2018-09-03T15:02:01.212Z,101991.19
2018-09-03T15:04:30.502Z,101992.69
2018-09-03T15:06:58.814Z,101988.69
2018-09-03T15:09:27.082Z,101995.05
2018-09-03T15:11:55.392Z,101986.29
2018-09-03T15:14:23.641Z,101987.05
2018-09-03T15:16:51.919Z,101979.42
2018-09-03T15:19:20.233Z,101964.32
2018-09-03T15:21:48.518Z,101974.18
2018-09-03T15:24:17.257Z,101963.91
2018-09-03T15:26:45.571Z,101962.48
2018-09-03T15:29:13.795Z,101970.44
2018-09-03T15:31:42.094Z,101959.23
2018-09-03T15:34:10.349Z,101965.95
2018-09-03T15:36:38.741Z,101963.53
2018-09-03T15:39:10.493Z,101960.83
2018-09-03T15:41:38.784Z,101964.00
2018-09-03T15:44:07.441Z,101967.19
2018-09-03T15:46:35.761Z,101971.50
2018-09-03T15:49:04.088Z,101968.91
2018-09-03T15:51:32.330Z,101962.52
2018-09-03T15:54:00.653Z,101969.66
2018-09-03T15:56:29.001Z,101960.36
2018-09-03T15:58:57.282Z,101966.58
2018-09-03T16:01:25.541Z,101966.53
2018-09-03T16:03:53.837Z,101968.79
2018-09-03T16:06:22.114Z,101983.90
2018-09-03T16:08:50.432Z,101987.11
2018-09-03T16:11:18.742Z,101989.27
2018-09-03T16:13:47.027Z,101978.13
2018-09-03T16:16:15.277Z,101978.29
2018-09-03T16:18:43.562Z,101977.50
2018-09-03T16:21:11.901Z,101968.55
2018-09-03T16:23:40.186Z,101964.72
2018-09-03T16:26:08.429Z,101970.85
2018-09-03T16:28:36.787Z,101973.55
2018-09-03T16:31:05.166Z,101970.89
2018-09-03T16:33:33.470Z,101973.54
2018-09-03T16:37:05.098Z,101969.04
2018-09-03T16:39:33.369Z,101969.05
2018-09-03T16:42:01.688Z,101971.86
2018-09-03T16:44:29.935Z,101978.20
2018-09-03T16:46:58.189Z,101976.63
2018-09-03T16:49:26.471Z,101981.72
2018-09-03T16:51:54.754Z,101979.14
2018-09-03T16:54:23.057Z,101982.81
2018-09-03T16:56:51.417Z,101981.28
2018-09-03T16:59:19.905Z,101977.77
2018-09-03T17:01:48.214Z,101978.31
2018-09-03T17:04:16.517Z,101992.13
2018-09-03T17:06:44.852Z,101986.37
2018-09-03T17:09:13.161Z,101976.58
2018-09-03T17:11:41.457Z,101969.37
2018-09-03T17:14:09.702Z,101969.30
2018-09-03T17:16:38.095Z,101976.54
2018-09-03T17:19:06.540Z,101974.89
2018-09-03T17:21:34.951Z,101974.58
2018-09-03T17:24:03.225Z,101968.73
2018-09-03T17:26:31.541Z,101968.91
2018-09-03T17:28:59.801Z,101966.73
2018-09-03T17:31:28.138Z,101975.09
2018-09-03T17:33:56.397Z,101978.75
2018-09-03T17:36:24.710Z,101975.07
2018-09-03T17:38:52.989Z,101968.73
2018-09-03T17:41:21.345Z,101975.08
2018-09-03T17:43:49.621Z,101974.56
2018-09-03T17:46:17.929Z,101972.02
2018-09-03T17:48:46.233Z,101963.39
2018-09-03T17:51:14.531Z,101972.31
2018-09-03T17:53:42.924Z,101973.91
2018-09-03T17:56:11.213Z,101974.55
2018-09-03T17:58:39.505Z,101974.08
2018-09-03T18:01:07.741Z,101977.67
2018-09-03T18:03:36.246Z,101975.81
2018-09-03T18:06:04.541Z,101979.47
2018-09-03T18:08:32.840Z,101980.59
2018-09-03T18:11:01.089Z,101987.20
2018-09-03T18:13:29.369Z,101989.74
2018-09-03T18:15:57.648Z,101989.73
2018-09-03T18:18:25.946Z,101987.70
2018-09-03T18:20:54.217Z,101996.02
2018-09-03T18:23:22.513Z,102000.66
2018-09-03T18:25:50.754Z,102003.69
2018-09-03T18:28:19.035Z,101993.22
2018-09-03T18:30:47.340Z,101996.59
2018-09-03T18:33:15.613Z,101993.44
2018-09-03T18:35:43.916Z,101987.86
2018-09-03T18:38:12.222Z,101991.23
2018-09-03T18:40:40.958Z,101996.91
2018-09-03T18:43:09.238Z,101993.36
2018-09-03T18:45:37.509Z,101995.80
2018-09-03T18:48:05.966Z,101994.36
2018-09-03T18:50:34.216Z,101994.91
2018-09-03T18:53:02.529Z,101996.30
2018-09-03T18:55:30.817Z,101998.94
2018-09-03T18:57:59.070Z,101990.31
2018-09-03T19:00:28.148Z,101994.22
2018-09-03T19:02:56.389Z,102001.55
2018-09-03T19:05:24.682Z,102000.70
2018-09-03T19:07:52.957Z,102001.88
2018-09-03T19:10:21.239Z,102008.44
2018-09-03T19:12:49.497Z,102007.52
2018-09-03T19:15:17.773Z,102007.50
2018-09-03T19:17:46.046Z,102007.18
2018-09-03T19:20:14.379Z,102002.72
2018-09-03T19:22:42.633Z,102008.66
2018-09-03T19:25:10.937Z,102004.45
2018-09-03T19:27:39.264Z,102011.75
2018-09-03T19:30:07.741Z,102009.27
2018-09-03T19:32:35.988Z,102013.78
2018-09-03T19:35:04.376Z,102012.53
2018-09-03T19:37:32.645Z,102022.30
2018-09-03T19:40:00.962Z,102023.23
2018-09-03T19:42:29.241Z,102016.52
2018-09-03T19:44:57.514Z,102021.18
2018-09-03T19:47:25.797Z,102016.96
2018-09-03T19:49:54.170Z,102018.11
2018-09-03T19:52:22.468Z,102017.84
2018-09-03T19:54:50.709Z,102020.92
2018-09-03T19:57:19.300Z,102017.45
2018-09-03T19:59:47.865Z,102013.05
2018-09-03T20:02:16.141Z,102009.00
2018-09-03T20:04:46.497Z,102010.09
2018-09-03T20:07:14.786Z,102006.73
2018-09-03T20:09:43.045Z,102007.98
2018-09-03T20:12:11.398Z,102011.43
2018-09-03T20:14:39.694Z,102010.88
2018-09-03T20:17:07.998Z,102007.39
2018-09-03T20:19:36.276Z,102003.16
2018-09-03T20:22:04.593Z,102002.08
2018-09-03T20:24:33.985Z,102002.23
2018-09-03T20:27:02.259Z,102007.15
2018-09-03T20:29:30.505Z,102004.90
2018-09-03T20:31:58.789Z,102010.45
2018-09-03T20:34:27.062Z,102008.30
2018-09-03T20:36:55.356Z,102004.78
2018-09-03T20:39:23.601Z,102007.67
2018-09-03T20:41:51.961Z,102007.95
2018-09-03T20:44:20.325Z,102000.73
2018-09-03T20:46:48.615Z,102005.02
2018-09-03T20:49:17.469Z,102003.64
2018-09-03T20:51:46.158Z,102007.67
2018-09-03T20:54:14.437Z,101995.77
2018-09-03T20:56:42.706Z,101993.95
2018-09-03T20:59:10.993Z,101993.48
2018-09-03T21:01:39.419Z,101997.00
2018-09-03T21:04:07.743Z,101996.51
2018-09-03T21:06:38.030Z,101995.00
2018-09-03T21:09:07.962Z,101993.23
2018-09-03T21:11:36.291Z,101986.39
2018-09-03T21:14:13.332Z,101987.38
2018-09-03T21:16:41.636Z,101991.57
2018-09-03T21:19:10.410Z,101989.20
2018-09-03T21:21:39.025Z,101992.09
2018-09-03T21:24:08.396Z,101996.16
2018-09-03T21:26:36.733Z,102000.05
2018-09-03T21:29:05.330Z,101994.12
2018-09-03T21:31:33.613Z,102000.45
2018-09-03T21:34:02.075Z,102002.52
2018-09-03T21:36:30.357Z,102000.89
2018-09-03T21:38:59.374Z,101998.48
2018-09-03T21:41:28.069Z,101997.64
2018-09-03T21:43:56.744Z,101996.96
2018-09-03T21:46:25.215Z,101996.03
2018-09-03T21:48:53.617Z,101989.66
2018-09-03T21:51:22.569Z,101992.98
2018-09-03T21:53:50.875Z,101989.00
2018-09-03T21:56:19.169Z,101988.36
2018-09-03T21:58:47.438Z,101989.37
2018-09-03T22:01:15.772Z,101990.02
2018-09-03T22:03:44.084Z,101984.37
2018-09-03T22:06:12.432Z,101992.88
2018-09-03T22:08:40.768Z,101991.06
2018-09-03T22:11:09.183Z,101992.33
2018-09-03T22:13:37.516Z,101997.03
2018-09-03T22:16:07.997Z,102004.22
2018-09-03T22:18:37.425Z,102003.81
2018-09-03T22:21:05.988Z,101999.91
2018-09-03T22:23:34.414Z,102006.53
2018-09-03T22:26:02.689Z,102003.05
2018-09-03T22:28:32.024Z,102008.43
2018-09-03T22:31:00.302Z,102006.91
2018-09-03T22:33:28.588Z,102013.94
2018-09-03T22:35:57.053Z,102019.02
2018-09-03T22:38:25.929Z,102023.22
2018-09-03T22:40:54.212Z,102018.43
2018-09-03T22:43:23.543Z,102020.53
2018-09-03T22:45:51.867Z,102018.38
2018-09-03T22:48:20.356Z,102017.58
2018-09-03T22:50:48.665Z,102021.55
2018-09-03T22:53:16.987Z,102021.45
2018-09-03T22:55:45.667Z,102023.92
2018-09-03T22:58:13.973Z,102016.55
2018-09-03T23:00:42.264Z,102015.22
2018-09-03T23:03:10.647Z,102011.63
2018-09-03T23:05:38.944Z,102009.54
2018-09-03T23:08:07.229Z,102008.53
2018-09-03T23:10:35.516Z,102007.25
2018-09-03T23:13:03.957Z,102010.28
2018-09-03T23:15:33.364Z,102005.05
2018-09-03T23:18:01.741Z,102001.76
2018-09-03T23:20:31.122Z,101996.95
2018-09-03T23:22:59.493Z,101999.34
2018-09-03T23:25:27.822Z,101989.53
2018-09-03T23:27:56.109Z,101991.44
2018-09-03T23:30:24.410Z,101993.67
2018-09-03T23:32:52.688Z,101985.38
2018-09-03T23:35:21.102Z,101978.38
2018-09-03T23:37:49.386Z,101984.59
2018-09-03T23:40:17.685Z,101974.14
2018-09-03T23:42:46.013Z,101976.26
2018-09-03T23:45:14.337Z,101969.98
2018-09-03T23:47:42.629Z,101969.45
2018-09-03T23:50:10.983Z,101967.97
2018-09-03T23:52:39.246Z,101967.09
2018-09-03T23:55:07.556Z,101968.23
2018-09-03T23:57:35.829Z,101962.17
